ADDS METAR Data INFO
IDs: Format: Raw Decoded Include TAF

Data at: 0214 UTC 18 Jan 2018

KMQB 180155Z AUTO 22012KT 10SM CLR M08/M12 A3045 RMK AO2 T10811119
KMQB 180135Z AUTO 22012KT 10SM CLR M08/M12 A3046 RMK AO2 T10811118
KMQB 180120Z AUTO 22010KT 10SM CLR M08/M12 A3047 RMK AO2 T10801118
KMQB 180055Z AUTO 22010KT 10SM CLR M08/M12 A3048 RMK AO2 T10801117
KMQB 180035Z AUTO 22009KT 10SM CLR M08/M12 A3048 RMK AO2 T10801117
KMQB 180015Z AUTO 22009KT 10SM CLR M08/M12 A3049 RMK AO2 T10821119
KMQB 172350Z AUTO 22008KT 10SM CLR M08/M12 A3049 RMK AO2 T10801120 11060 21087
KMQB 172335Z AUTO 22009KT 10SM CLR M08/M12 A3049 RMK AO2 T10771120
KMQB 172315Z AUTO 22010KT 10SM CLR M07/M12 A3049 RMK AO2 T10751120
KMQB 172255Z AUTO 23012G15KT 10SM CLR M07/M12 A3050 RMK AO2 T10711117
KMQB 172235Z AUTO 23012KT 10SM CLR M07/M12 A3050 RMK AO2 T10661117
KMQB 172215Z AUTO 23011KT 10SM CLR M06/M12 A3051 RMK AO2 T10641116
KMQB 172155Z AUTO 23013KT 10SM CLR M06/M11 A3051 RMK AO2 T10611114
KMQB 172135Z AUTO 22012KT 10SM CLR M06/M11 A3052 RMK AO2 T10611115
KMQB 172115Z AUTO 23010KT 10SM CLR M06/M11 A3051 RMK AO2 T10601112
KMQB 172055Z AUTO 22009KT 10SM CLR M06/M11 A3052 RMK AO2 T10601111
KMQB 172035Z AUTO 23008KT 10SM CLR M06/M11 A3053 RMK AO2 T10601113
KMQB 172015Z AUTO 24010KT 10SM CLR M06/M11 A3053 RMK AO2 T10611113
KMQB 171956Z AUTO 23010KT 10SM CLR M07/M12 A3054 RMK AO2
KMQB 171935Z AUTO 22010KT 10SM CLR M07/M12 A3055 RMK AO2 T10671117
KMQB 171915Z AUTO 23008KT 10SM CLR M07/M12 A3056 RMK AO2 T10711118
KMQB 171900Z AUTO 23008KT 10SM CLR M07/M12 A3056 RMK AO2 T10751119
KMQB 171835Z AUTO 22009KT 10SM CLR M08/M13 A3058 RMK AO2 T10821126
KMQB 171815Z AUTO 22007KT 10SM CLR M09/M13 A3059 RMK AO2 T10861131
KMQB 171755Z AUTO 22007KT 10SM CLR M09/M13 A3060 RMK AO2 T10891131 11089 21195
KMQB 171735Z AUTO 25011KT 10SM CLR M09/M13 A3062 RMK AO2 T10941130
KMQB 171715Z AUTO 26010KT 10SM CLR M10/M13 A3064 RMK AO2 T11001135
KMQB 171655Z AUTO 25013KT 10SM CLR M10/M14 A3064 RMK AO2 T11031136
KMQB 171635Z AUTO 25008KT 10SM CLR M11/M14 A3065 RMK AO2 T11121145
KMQB 171620Z AUTO 25008KT 10SM CLR M12/M15 A3065 RMK AO2 T11221151
KMQB 171555Z AUTO 26008KT 10SM CLR M14/M16 A3065 RMK AO2 T11361159
KMQB 171535Z AUTO 25007KT 10SM CLR M15/M17 A3065 RMK AO2 T11471168
KMQB 171515Z AUTO 25007KT 10SM CLR M16/M18 A3065 RMK AO2 T11571178
KMQB 171500Z AUTO 26006KT 10SM CLR M16/M18 A3065 RMK AO2 T11631182
KMQB 171435Z AUTO 25007KT 10SM CLR M17/M19 A3064 RMK AO2 T11731191
KMQB 171415Z AUTO 26007KT 10SM CLR M18/M20 A3065 RMK AO2 T11801198
KMQB 171355Z AUTO 26007KT 10SM CLR M18/M20 A3065 RMK AO2 T11851202
KMQB 171330Z AUTO 25006KT 10SM CLR M19/M21 A3065 RMK AO2 T11931211
KMQB 171315Z AUTO 25007KT 10SM CLR M19/M21 A3065 RMK AO2 T11931211
KMQB 171255Z AUTO 25007KT 10SM CLR M19/M21 A3065 RMK AO2 T11931210
KMQB 171240Z AUTO 25006KT 10SM CLR M19/M21 A3065 RMK AO2 T11951211
KMQB 171215Z AUTO 25005KT 10SM CLR M19/M21 A3063 RMK AO2 T11921210
KMQB 171155Z AUTO 26005KT 10SM CLR M19/M21 A3064 RMK AO2 T11921210 11173 21201
KMQB 171140Z AUTO 26007KT 10SM SCT007 M19/M21 A3064 RMK AO2 T11921210
KMQB 171115Z AUTO 26007KT 10SM OVC007 M19/M21 A3065 RMK AO2 T11901207
KMQB 171055Z AUTO 25006KT 10SM SCT007 M19/M21 A3065 RMK AO2 T11951211
KMQB 171035Z AUTO 24006KT 10SM CLR M20/M22 A3065 RMK AO2 T12001219
KMQB 171020Z AUTO 25006KT 10SM CLR M20/M22 A3065 RMK AO2 T12011220
KMQB 170955Z AUTO 25005KT 10SM CLR M20/M21 A3065 RMK AO2 T11971214
KMQB 170935Z AUTO 26004KT 10SM CLR M19/M21 A3065 RMK AO2 T11911209
KMQB 170915Z AUTO 27005KT 10SM CLR M19/M21 A3066 RMK AO2 T11901208
KMQB 170855Z AUTO 27007KT 10SM CLR M19/M21 A3066 RMK AO2 T11901206
KMQB 170835Z AUTO 28008KT 10SM CLR M19/M20 A3066 RMK AO2 T11881205
KMQB 170815Z AUTO 27007KT 10SM CLR M18/M20 A3066 RMK AO2 T11851201
KMQB 170755Z AUTO 27007KT 10SM CLR M18/M20 A3066 RMK AO2 T11811198
KMQB 170735Z AUTO 27007KT 10SM CLR M18/M20 A3065 RMK AO2 T11851201
KMQB 170715Z AUTO 26006KT 10SM CLR M18/M20 A3065 RMK AO2 T11811199
KMQB 170655Z AUTO 27007KT 10SM CLR M18/M19 A3066 RMK AO2 T11781195
KMQB 170635Z AUTO 27007KT 10SM CLR M18/M19 A3066 RMK AO2 T11771195
KMQB 170615Z AUTO 27007KT 10SM CLR M18/M19 A3066 RMK AO2 T11761195
KMQB 170555Z AUTO 27007KT 10SM CLR M17/M19 A3066 RMK AO2 T11731192 11139 21175 411111202
KMQB 170535Z AUTO 28009KT 10SM CLR M17/M19 A3066 RMK AO2 T11721191
KMQB 170515Z AUTO 28008KT 10SM CLR M17/M19 A3067 RMK AO2 T11711190
KMQB 170455Z AUTO 27008KT 10SM CLR M17/M19 A3067 RMK AO2 T11691190
KMQB 170435Z AUTO 28008KT 10SM CLR M17/M19 A3067 RMK AO2 T11691190
KMQB 170415Z AUTO 29008KT 10SM CLR M17/M19 A3067 RMK AO2 T11691190
KMQB 170355Z AUTO 28007KT 10SM CLR M17/M19 A3067 RMK AO2 T11661188
KMQB 170335Z AUTO 28008KT 10SM CLR M16/M19 A3067 RMK AO2 T11641187
KMQB 170315Z AUTO 28009KT 10SM CLR M16/M18 A3067 RMK AO2 T11611185
KMQB 170300Z AUTO 29009KT 10SM CLR M16/M18 A3067 RMK AO2 T11601183
KMQB 170235Z AUTO 29010KT 10SM CLR M16/M18 A3067 RMK AO2 T11561180
KMQB 170215Z AUTO 29010KT 10SM CLR M16/M18 A3067 RMK AO2 T11581181
KMQB 170155Z AUTO 28009KT 10SM CLR M16/M18 A3067 RMK AO2 T11591182
KMQB 170135Z AUTO 28009KT 10SM CLR M15/M18 A3068 RMK AO2 T11551178
KMQB 170115Z AUTO 28008KT 10SM CLR M16/M18 A3067 RMK AO2 T11601180
KMQB 170055Z AUTO 27007KT 10SM CLR M16/M18 A3067 RMK AO2 T11581181
KMQB 170035Z AUTO 27005KT 10SM CLR M16/M18 A3067 RMK AO2 T11591181
KMQB 170015Z AUTO 29006KT 10SM CLR M15/M17 A3067 RMK AO2 T11501175
KMQB 162355Z AUTO 29008KT 10SM SCT032 SCT044 M14/M16 A3067 RMK AO2 T11371162 11111 21141
KMQB 162335Z AUTO 29009KT 10SM -SN SCT027 BKN032 OVC042 M13/M15 A3066 RMK AO2 T11271154
KMQB 162315Z AUTO 29011KT 10SM -SN SCT029 SCT035 OVC042 M12/M15 A3066 RMK AO2 T11221151
KMQB 162255Z AUTO 28011KT 10SM -SN BKN042 M12/M15 A3066 RMK AO2 T11211152
KMQB 162235Z AUTO 28012KT 10SM SCT044 M12/M15 A3065 RMK AO2 T11201153
KMQB 162215Z AUTO 28012KT 10SM CLR M12/M15 A3065 RMK AO2 T11181151
KMQB 162155Z AUTO 28013KT 10SM SCT046 M11/M15 A3064 RMK AO2 T11151150
KMQB 162135Z AUTO 29011KT 10SM SCT046 M11/M15 A3063 RMK AO2 T11121146
KMQB 162115Z AUTO 28012KT 10SM CLR M11/M15 A3063 RMK AO2 T11131147
KMQB 162055Z AUTO 27013KT 10SM CLR M11/M15 A3063 RMK AO2 T11141147
KMQB 162035Z AUTO 28012KT 10SM SCT011 M11/M15 A3063 RMK AO2 T11131146
KMQB 162015Z AUTO 28010KT 10SM CLR M11/M14 A3062 RMK AO2 T11131145
KMQB 161955Z AUTO 29011KT 10SM CLR M12/M15 A3063 RMK AO2 T11161147
KMQB 161935Z AUTO 28012KT 10SM CLR M12/M15 A3062 RMK AO2 T11201151
KMQB 161915Z AUTO 28013KT 10SM -SN SCT022 M12/M15 A3062 RMK AO2 T11241154
KMQB 161855Z AUTO 28012KT 5SM -SN BKN022 M13/M16 A3062 RMK AO2 T11291158
KMQB 161835Z AUTO 29013KT 5SM -SN OVC022 M13/M16 A3063 RMK AO2 T11351164
KMQB 161815Z AUTO 30012KT 10SM -SN OVC020 M14/M17 A3063 RMK AO2 T11371166
KMQB 161755Z AUTO 29011KT 10SM -SN OVC020 M14/M17 A3065 RMK AO2 T11421170 11142 21201
KMQB 161735Z AUTO 29013KT 10SM -SN OVC022 M15/M18 A3065 RMK AO2 T11481178
KMQB 161715Z AUTO 29012KT 10SM -SN OVC022 M15/M18 A3065 RMK AO2 T11531183
KMQB 161655Z AUTO 28012KT 10SM -SN OVC022 M16/M19 A3066 RMK AO2 T11601190
KMQB 161635Z AUTO 28013KT 10SM -SN SCT020 M16/M19 A3065 RMK AO2 T11641195
KMQB 161615Z AUTO 29011KT 10SM CLR M17/M20 A3066 RMK AO2 T11711201
KMQB 161555Z AUTO 29011KT 10SM -SN SCT020 M18/M20 A3065 RMK AO2 T11761205
KMQB 161535Z AUTO 28012KT 5SM HZ BKN022 BKN027 M18/M21 A3065 RMK AO2 T11811210
KMQB 161520Z AUTO 28014KT 7SM -SN BKN022 BKN029 BKN038 M18/M21 A3065 RMK AO2 T11841211
KMQB 161455Z AUTO 28010KT 5SM -SN BKN023 OVC029 M19/M22 A3064 RMK AO2 T11901216
KMQB 161435Z AUTO 28011KT 4SM -SN BKN023 OVC033 M19/M22 A3063 RMK AO2 T11931220
KMQB 161415Z AUTO 28011KT 3SM -SN BKN021 OVC033 M20/M22 A3063 RMK AO2 T11971223